createdAt,value
2018-12-25T00:01:21.840Z,19.10
2018-12-25T00:04:05.374Z,19.00
2018-12-25T00:06:48.555Z,19.00
2018-12-25T00:12:15.253Z,19.00
2018-12-25T00:14:59.304Z,19.00
2018-12-25T00:17:42.598Z,19.00
2018-12-25T00:20:26.667Z,18.90
2018-12-25T00:23:11.226Z,18.90
2018-12-25T00:25:55.697Z,18.90
2018-12-25T00:28:39.402Z,18.90
2018-12-25T00:34:07.136Z,18.90
2018-12-25T00:36:50.729Z,18.90
2018-12-25T00:39:33.796Z,18.90
2018-12-25T00:42:17.418Z,19.00
2018-12-25T00:45:00.249Z,18.90
2018-12-25T00:47:44.052Z,18.90
2018-12-25T00:50:26.893Z,18.80
2018-12-25T00:53:09.896Z,18.80
2018-12-25T00:55:54.867Z,18.80
2018-12-25T00:58:38.045Z,18.70
2018-12-25T01:01:21.415Z,18.70
2018-12-25T01:04:04.840Z,18.70
2018-12-25T01:06:49.777Z,18.60
2018-12-25T01:12:18.204Z,18.60
2018-12-25T01:15:02.559Z,18.60
2018-12-25T01:17:45.642Z,18.60
2018-12-25T01:23:12.708Z,18.60
2018-12-25T01:25:56.156Z,18.70
2018-12-25T01:28:42.177Z,18.60
2018-12-25T01:34:09.175Z,18.50
2018-12-25T01:36:52.466Z,18.50
2018-12-25T01:39:35.161Z,18.50
2018-12-25T01:42:18.862Z,18.50
2018-12-25T01:45:02.124Z,18.50
2018-12-25T01:50:27.155Z,18.30
2018-12-25T01:53:11.045Z,18.30
2018-12-25T01:55:53.792Z,18.30
2018-12-25T02:01:18.945Z,18.30
2018-12-25T02:04:02.541Z,18.30
2018-12-25T02:06:45.706Z,18.30
2018-12-25T02:09:29.485Z,18.30
2018-12-25T02:12:13.905Z,18.30
2018-12-25T02:14:58.428Z,18.20
2018-12-25T02:17:41.085Z,18.20
2018-12-25T02:20:24.615Z,18.20
2018-12-25T02:23:07.823Z,18.10
2018-12-25T02:25:51.083Z,18.00
2018-12-25T02:28:36.714Z,18.00
2018-12-25T02:31:20.050Z,17.90
2018-12-25T02:34:03.484Z,17.80
2018-12-25T02:39:36.273Z,17.70
2018-12-25T02:42:19.892Z,17.60
2018-12-25T02:45:03.103Z,17.50
2018-12-25T02:47:46.041Z,17.50
2018-12-25T02:50:30.489Z,17.40
2018-12-25T02:53:14.991Z,17.40
2018-12-25T02:55:58.823Z,17.40
2018-12-25T02:58:43.759Z,17.40
2018-12-25T03:01:26.995Z,17.30
2018-12-25T03:04:11.219Z,17.30
2018-12-25T03:06:54.268Z,17.30
2018-12-25T03:09:38.057Z,17.20
2018-12-25T03:12:22.179Z,17.30
2018-12-25T03:15:05.900Z,17.30
2018-12-25T03:17:49.936Z,17.20
2018-12-25T03:20:34.713Z,17.20
2018-12-25T03:26:09.916Z,17.20
2018-12-25T03:31:35.212Z,17.10
2018-12-25T03:34:19.036Z,17.10
2018-12-25T03:37:01.964Z,17.10
2018-12-25T03:39:45.024Z,17.00
2018-12-25T03:42:28.420Z,17.00
2018-12-25T03:45:13.345Z,16.90
2018-12-25T03:47:56.752Z,16.90
2018-12-25T03:50:39.894Z,16.90
2018-12-25T03:53:22.853Z,16.90
2018-12-25T03:56:06.021Z,16.80
2018-12-25T03:58:48.787Z,16.80
2018-12-25T04:01:32.100Z,16.80
2018-12-25T04:04:14.798Z,16.80
2018-12-25T04:06:57.946Z,16.80
2018-12-25T04:09:41.788Z,16.80
2018-12-25T04:12:25.544Z,16.80
2018-12-25T04:15:09.743Z,16.70
2018-12-25T04:17:54.130Z,16.70
2018-12-25T04:20:37.479Z,16.70
2018-12-25T04:23:21.988Z,16.70
2018-12-25T04:26:05.155Z,16.60
2018-12-25T04:28:48.112Z,16.60
2018-12-25T04:31:31.384Z,16.50
2018-12-25T04:34:15.036Z,16.50
2018-12-25T04:36:59.726Z,16.50
2018-12-25T04:39:43.389Z,16.50
2018-12-25T04:42:26.039Z,16.40
2018-12-25T04:45:11.851Z,16.40
2018-12-25T04:47:55.047Z,16.40
2018-12-25T04:50:38.624Z,16.40
2018-12-25T04:53:21.571Z,16.30
2018-12-25T04:56:05.027Z,16.30
2018-12-25T04:58:48.980Z,16.20
2018-12-25T05:01:32.883Z,16.20
2018-12-25T05:04:16.292Z,16.20
2018-12-25T05:07:01.620Z,16.20
2018-12-25T05:09:44.364Z,16.10
2018-12-25T05:12:27.701Z,16.10
2018-12-25T05:15:11.959Z,16.00
2018-12-25T05:17:55.667Z,16.00
2018-12-25T05:20:39.664Z,16.00
2018-12-25T05:23:22.836Z,16.00
2018-12-25T05:26:06.805Z,16.00
2018-12-25T05:28:50.636Z,16.00
2018-12-25T05:34:12.380Z,16.00
2018-12-25T05:36:55.645Z,16.10
2018-12-25T05:39:38.987Z,16.10
2018-12-25T05:42:21.915Z,16.20
2018-12-25T05:45:04.626Z,16.20
2018-12-25T05:50:46.890Z,16.30
2018-12-25T05:53:28.111Z,16.30
2018-12-25T05:56:13.477Z,16.30
2018-12-25T05:58:56.962Z,16.30
2018-12-25T06:01:40.089Z,16.30
2018-12-25T06:07:05.851Z,16.30
2018-12-25T06:09:48.916Z,16.30
2018-12-25T06:12:32.133Z,16.20
2018-12-25T06:15:15.283Z,16.30
2018-12-25T06:17:58.647Z,16.30
2018-12-25T06:20:41.952Z,16.30
2018-12-25T06:23:26.224Z,16.30
2018-12-25T06:26:09.194Z,16.30
2018-12-25T06:28:52.243Z,16.20
2018-12-25T06:31:35.553Z,16.30
2018-12-25T06:34:18.475Z,16.30
2018-12-25T06:37:01.986Z,16.30
2018-12-25T06:39:45.150Z,16.30
2018-12-25T06:42:29.562Z,16.40
2018-12-25T06:45:13.640Z,16.40
2018-12-25T06:50:39.904Z,16.40
2018-12-25T06:53:23.227Z,16.40
2018-12-25T06:56:05.958Z,16.40
2018-12-25T06:58:48.755Z,16.50
2018-12-25T07:01:31.472Z,16.50
2018-12-25T07:04:15.319Z,16.50
2018-12-25T07:06:58.098Z,16.50
2018-12-25T07:09:41.335Z,16.50
2018-12-25T07:12:23.903Z,16.60
2018-12-25T07:15:06.758Z,16.60
2018-12-25T07:17:50.047Z,16.60
2018-12-25T07:20:34.411Z,16.60
2018-12-25T07:23:17.443Z,16.50
2018-12-25T07:26:00.632Z,16.60
2018-12-25T07:28:43.456Z,16.60
2018-12-25T07:31:27.404Z,16.50
2018-12-25T07:34:10.175Z,16.50
2018-12-25T07:36:52.871Z,16.40
2018-12-25T07:39:35.429Z,16.30
2018-12-25T07:42:18.636Z,16.30
2018-12-25T07:45:01.993Z,16.20
2018-12-25T07:47:45.098Z,16.20
2018-12-25T07:50:27.671Z,16.10
2018-12-25T07:53:10.759Z,16.10
2018-12-25T07:55:53.688Z,16.10
2018-12-25T08:01:18.688Z,16.00
2018-12-25T08:06:43.918Z,15.90
2018-12-25T08:09:27.075Z,15.90
2018-12-25T08:12:09.604Z,15.90
2018-12-25T08:14:52.669Z,15.90
2018-12-25T08:17:35.872Z,15.90
2018-12-25T08:23:02.692Z,15.90
2018-12-25T08:25:44.760Z,15.80
2018-12-25T08:28:28.283Z,15.80
2018-12-25T08:31:11.519Z,15.80
2018-12-25T08:33:54.600Z,15.80
2018-12-25T08:36:37.795Z,15.90
2018-12-25T08:39:21.233Z,15.90
2018-12-25T08:42:05.448Z,15.90
2018-12-25T08:44:48.792Z,15.90
2018-12-25T08:47:32.184Z,15.80
2018-12-25T08:50:15.688Z,15.80
2018-12-25T08:52:58.792Z,15.80
2018-12-25T08:55:41.783Z,15.90
2018-12-25T08:58:24.683Z,15.80
2018-12-25T09:01:07.608Z,15.90
2018-12-25T09:03:50.807Z,15.80
2018-12-25T09:06:34.354Z,15.80
2018-12-25T09:09:17.679Z,15.70
2018-12-25T09:12:00.134Z,15.70
2018-12-25T09:14:42.969Z,15.70
2018-12-25T09:17:27.688Z,15.70
2018-12-25T09:20:11.733Z,15.60
2018-12-25T09:22:54.682Z,15.60
2018-12-25T09:25:37.640Z,15.60
2018-12-25T09:28:20.688Z,15.60
2018-12-25T09:31:03.672Z,15.50
2018-12-25T09:33:46.664Z,15.50
2018-12-25T09:39:12.804Z,15.40
2018-12-25T09:41:55.671Z,15.40
2018-12-25T09:44:39.118Z,15.40
2018-12-25T09:47:22.134Z,15.40
2018-12-25T09:50:05.751Z,15.30
2018-12-25T09:52:48.306Z,15.20
2018-12-25T09:55:30.895Z,15.20
2018-12-25T09:58:13.777Z,15.10
2018-12-25T10:00:56.453Z,15.10
2018-12-25T10:03:39.763Z,15.00
2018-12-25T10:06:22.305Z,14.90
2018-12-25T10:09:07.179Z,14.90
2018-12-25T10:11:50.860Z,14.80
2018-12-25T10:14:33.989Z,14.80
2018-12-25T10:17:17.434Z,14.80
2018-12-25T10:20:00.727Z,14.80
2018-12-25T10:22:44.616Z,14.80
2018-12-25T10:25:28.752Z,14.80
2018-12-25T10:28:11.497Z,14.80
2018-12-25T10:30:54.803Z,14.80
2018-12-25T10:33:37.908Z,14.80
2018-12-25T10:36:20.699Z,14.80
2018-12-25T10:39:04.387Z,14.70
2018-12-25T10:41:47.247Z,14.70
2018-12-25T10:44:29.971Z,14.70
2018-12-25T10:47:13.786Z,14.70
2018-12-25T10:49:56.772Z,14.70
2018-12-25T10:55:22.318Z,14.60
2018-12-25T10:58:05.566Z,14.60
2018-12-25T11:00:48.733Z,14.50
2018-12-25T11:06:13.786Z,14.50
2018-12-25T11:11:38.527Z,14.50
2018-12-25T11:14:21.831Z,14.50
2018-12-25T11:17:06.195Z,14.50
2018-12-25T11:19:50.059Z,14.50
2018-12-25T11:22:33.385Z,14.50
2018-12-25T11:27:59.211Z,14.60
2018-12-25T11:30:42.588Z,14.60
2018-12-25T11:33:25.864Z,14.70
2018-12-25T11:36:09.233Z,14.70
2018-12-25T11:38:51.928Z,14.80
2018-12-25T11:41:35.147Z,14.90
2018-12-25T11:44:17.800Z,14.90
2018-12-25T11:47:00.819Z,14.90
2018-12-25T11:49:43.767Z,14.90
2018-12-25T11:52:28.568Z,15.00
2018-12-25T11:55:12.023Z,15.00
2018-12-25T11:57:55.783Z,15.10
2018-12-25T12:00:38.821Z,15.10
2018-12-25T12:03:21.254Z,15.00
2018-12-25T12:06:04.645Z,14.90
2018-12-25T12:08:47.720Z,14.80
2018-12-25T12:11:30.171Z,14.70
2018-12-25T12:14:12.873Z,14.70
2018-12-25T12:16:55.985Z,14.70
2018-12-25T12:19:39.441Z,14.70
2018-12-25T12:22:22.110Z,14.70
2018-12-25T12:25:05.314Z,14.80
2018-12-25T12:27:48.687Z,14.80
2018-12-25T12:30:31.707Z,14.80
2018-12-25T12:33:15.562Z,14.80
2018-12-25T12:35:59.231Z,14.80
2018-12-25T12:38:43.677Z,14.90
2018-12-25T12:41:26.820Z,14.90
2018-12-25T12:44:10.093Z,14.90
2018-12-25T12:46:53.688Z,14.90
2018-12-25T12:49:37.259Z,15.00
2018-12-25T12:52:20.036Z,15.00
2018-12-25T12:55:01.928Z,15.10
2018-12-25T13:00:23.471Z,15.20
2018-12-25T13:03:06.470Z,15.30
2018-12-25T13:05:49.083Z,15.30
2018-12-25T13:08:32.363Z,15.40
2018-12-25T13:11:15.375Z,15.40
2018-12-25T13:14:00.056Z,15.40
2018-12-25T13:16:42.679Z,15.50
2018-12-25T13:19:26.492Z,15.50
2018-12-25T13:22:09.748Z,15.50
2018-12-25T13:33:21.820Z,15.70
2018-12-25T13:36:04.724Z,15.90
2018-12-25T13:38:47.606Z,15.90
2018-12-25T13:41:30.760Z,16.00
2018-12-25T13:44:13.735Z,16.20
2018-12-25T13:46:57.573Z,16.30
2018-12-25T13:49:40.278Z,16.50
2018-12-25T13:52:23.649Z,16.50
2018-12-25T13:55:06.180Z,16.70
2018-12-25T13:57:49.456Z,16.80
2018-12-25T14:00:31.892Z,16.90
2018-12-25T14:03:15.179Z,17.00
2018-12-25T14:05:57.838Z,17.10
2018-12-25T14:08:41.812Z,17.20
2018-12-25T14:11:24.784Z,17.30
2018-12-25T14:14:07.946Z,17.40
2018-12-25T14:16:50.686Z,17.40
2018-12-25T14:19:34.082Z,17.40
2018-12-25T14:22:16.983Z,17.50
2018-12-25T14:27:41.803Z,17.60
2018-12-25T14:30:25.942Z,17.70
2018-12-25T14:35:54.754Z,17.80
2018-12-25T14:38:37.850Z,17.90
2018-12-25T14:41:28.533Z,18.00
2018-12-25T14:44:12.030Z,18.10
2018-12-25T14:46:55.191Z,18.10
2018-12-25T14:49:38.686Z,18.20
2018-12-25T14:55:04.017Z,18.50
2018-12-25T14:57:46.869Z,18.50
2018-12-25T15:00:30.102Z,18.60
2018-12-25T15:03:04.748Z,18.70
2018-12-25T15:05:38.156Z,18.70
2018-12-25T15:08:11.379Z,18.80
2018-12-25T15:10:44.636Z,18.80
2018-12-25T15:13:19.202Z,18.90
2018-12-25T15:15:52.751Z,19.00
2018-12-25T15:18:26.119Z,19.10
2018-12-25T15:21:00.533Z,19.10
2018-12-25T15:23:34.973Z,19.20
2018-12-25T15:26:09.451Z,19.40
2018-12-25T15:28:44.536Z,19.40
2018-12-25T15:31:19.591Z,19.40
2018-12-25T15:33:53.930Z,19.40
2018-12-25T15:36:28.304Z,19.40
2018-12-25T15:39:01.641Z,19.50
2018-12-25T15:41:35.091Z,19.40
2018-12-25T15:44:08.283Z,19.40
2018-12-25T15:46:41.567Z,19.50
2018-12-25T15:49:16.950Z,19.60
2018-12-25T15:51:51.319Z,19.70
2018-12-25T15:54:25.449Z,19.80
2018-12-25T15:57:01.669Z,19.90
2018-12-25T15:59:36.799Z,20.00
2018-12-25T16:02:10.226Z,20.10
2018-12-25T16:04:44.060Z,20.10
2018-12-25T16:07:17.387Z,20.10
2018-12-25T16:09:52.555Z,20.10
2018-12-25T16:12:26.448Z,20.00
2018-12-25T16:14:59.920Z,20.00
2018-12-25T16:17:33.414Z,20.10
2018-12-25T16:20:07.007Z,20.20
2018-12-25T16:22:40.522Z,20.30
2018-12-25T16:25:13.789Z,20.40
2018-12-25T16:27:47.109Z,20.50
2018-12-25T16:30:21.331Z,20.50
2018-12-25T16:32:54.632Z,20.60
2018-12-25T16:35:27.817Z,20.70
2018-12-25T16:38:01.021Z,20.60
2018-12-25T16:40:34.233Z,20.70
2018-12-25T16:43:07.517Z,20.80
2018-12-25T16:45:40.736Z,20.70
2018-12-25T16:48:16.210Z,20.70
2018-12-25T16:50:49.433Z,20.80
2018-12-25T16:53:24.929Z,20.90
2018-12-25T16:55:59.196Z,21.00
2018-12-25T16:58:33.504Z,21.00
2018-12-25T17:01:06.686Z,20.90
2018-12-25T17:03:41.001Z,21.00
2018-12-25T17:06:15.591Z,21.20
2018-12-25T17:08:51.949Z,21.20
2018-12-25T17:11:26.375Z,21.20
2018-12-25T17:14:00.300Z,21.30
2018-12-25T17:16:33.842Z,21.10
2018-12-25T17:19:07.506Z,21.10
2018-12-25T17:21:41.050Z,21.30
2018-12-25T17:24:15.464Z,21.30
2018-12-25T17:26:50.857Z,21.20
2018-12-25T17:29:24.105Z,21.20
2018-12-25T17:31:58.386Z,21.30
2018-12-25T17:34:32.954Z,21.40
2018-12-25T17:37:06.173Z,21.50
2018-12-25T17:39:39.655Z,21.60
2018-12-25T17:42:14.745Z,21.50
2018-12-25T17:44:49.228Z,21.70
2018-12-25T17:47:22.483Z,21.80
2018-12-25T17:49:57.016Z,21.90
2018-12-25T17:52:30.428Z,21.80
2018-12-25T17:55:03.990Z,21.80
2018-12-25T17:57:37.425Z,21.70
2018-12-25T18:00:12.043Z,21.70
2018-12-25T18:02:46.547Z,21.80
2018-12-25T18:05:19.987Z,21.80
2018-12-25T18:07:53.459Z,21.90
2018-12-25T18:10:27.945Z,21.80
2018-12-25T18:13:03.016Z,22.00
2018-12-25T18:15:38.538Z,22.30
2018-12-25T18:18:11.892Z,22.20
2018-12-25T18:20:45.325Z,22.30
2018-12-25T18:23:18.576Z,22.30
2018-12-25T18:25:53.063Z,22.30
2018-12-25T18:28:26.372Z,22.10
2018-12-25T18:31:00.855Z,22.10
2018-12-25T18:33:37.712Z,22.30
2018-12-25T18:36:11.071Z,22.30
2018-12-25T18:38:44.472Z,22.20
2018-12-25T18:41:20.115Z,22.20
2018-12-25T18:43:53.365Z,22.20
2018-12-25T18:46:27.035Z,22.20
2018-12-25T18:49:00.403Z,22.30
2018-12-25T18:51:33.901Z,22.30
2018-12-25T18:54:10.650Z,22.30
2018-12-25T18:56:44.329Z,22.20
2018-12-25T18:59:18.916Z,22.20
2018-12-25T19:01:52.398Z,22.40
2018-12-25T19:04:27.764Z,22.40
2018-12-25T19:07:01.175Z,22.30
2018-12-25T19:09:35.455Z,22.40
2018-12-25T19:12:08.731Z,22.40
2018-12-25T19:15:11.414Z,22.30
2018-12-25T19:17:44.776Z,22.30
2018-12-25T19:20:19.477Z,22.50
2018-12-25T19:22:52.727Z,22.50
2018-12-25T19:25:26.003Z,22.30
2018-12-25T19:28:01.062Z,22.20
2018-12-25T19:30:36.569Z,22.20
2018-12-25T19:33:10.158Z,22.30
2018-12-25T19:35:43.667Z,22.30
2018-12-25T19:38:17.547Z,22.30
2018-12-25T19:40:52.863Z,22.60
2018-12-25T19:43:26.240Z,22.60
2018-12-25T19:46:01.649Z,22.80
2018-12-25T19:48:34.919Z,22.90
2018-12-25T19:51:08.261Z,22.80
2018-12-25T19:53:41.587Z,22.70
2018-12-25T19:56:17.324Z,22.60
2018-12-25T19:58:51.351Z,22.30
2018-12-25T20:01:24.592Z,22.30
2018-12-25T20:04:04.485Z,22.50
2018-12-25T20:07:26.170Z,22.40
2018-12-25T20:10:45.927Z,22.00
2018-12-25T20:14:02.631Z,21.80
2018-12-25T20:17:12.447Z,21.70
2018-12-25T20:20:32.208Z,21.90
2018-12-25T20:23:34.743Z,21.90
2018-12-25T20:27:07.222Z,21.60
2018-12-25T20:30:13.676Z,21.80
2018-12-25T20:33:20.851Z,22.00
2018-12-25T20:36:38.687Z,22.30
2018-12-25T20:40:01.736Z,22.50
2018-12-25T20:43:17.488Z,22.30
2018-12-25T20:46:32.704Z,22.20
2018-12-25T20:49:34.110Z,21.90
2018-12-25T20:52:34.295Z,22.00
2018-12-25T20:55:41.955Z,22.10
2018-12-25T20:59:08.501Z,22.50
2018-12-25T21:02:16.188Z,22.50
2018-12-25T21:05:40.644Z,22.20
2018-12-25T21:09:02.134Z,21.80
2018-12-25T21:12:10.587Z,21.80
2018-12-25T21:15:22.054Z,21.80
2018-12-25T21:18:40.696Z,21.80
2018-12-25T21:21:52.761Z,22.20
2018-12-25T21:25:00.646Z,22.10
2018-12-25T21:27:34.947Z,21.90
2018-12-25T21:30:14.374Z,21.50
2018-12-25T21:32:49.363Z,21.60
2018-12-25T21:35:27.001Z,21.80
2018-12-25T21:38:02.699Z,21.80
2018-12-25T21:40:37.427Z,21.80
2018-12-25T21:43:12.233Z,21.80
2018-12-25T21:45:45.452Z,21.80
2018-12-25T21:48:28.268Z,21.70
2018-12-25T21:51:01.501Z,21.60
2018-12-25T21:53:35.936Z,21.70
2018-12-25T21:56:09.231Z,21.80
2018-12-25T21:58:43.744Z,21.60
2018-12-25T22:01:18.012Z,21.60
2018-12-25T22:03:53.837Z,21.60
2018-12-25T22:06:29.659Z,21.50
2018-12-25T22:09:04.849Z,21.40
2018-12-25T22:11:42.144Z,21.60
2018-12-25T22:14:18.304Z,21.50
2018-12-25T22:16:51.552Z,21.20
2018-12-25T22:19:24.997Z,20.80
2018-12-25T22:21:59.947Z,20.60
2018-12-25T22:24:36.057Z,20.40
2018-12-25T22:27:11.136Z,20.40
2018-12-25T22:29:45.092Z,20.30
2018-12-25T22:32:21.597Z,20.30
2018-12-25T22:34:57.168Z,20.20
2018-12-25T22:37:31.258Z,20.20
2018-12-25T22:40:05.934Z,20.20
2018-12-25T22:42:39.314Z,20.30
2018-12-25T22:45:12.781Z,20.30
2018-12-25T22:47:48.062Z,20.20
2018-12-25T22:50:22.598Z,20.10
2018-12-25T22:52:55.976Z,20.20
2018-12-25T22:55:35.731Z,20.20
2018-12-25T22:58:06.215Z,20.20
2018-12-25T23:00:41.543Z,20.20
2018-12-25T23:03:17.567Z,20.20
2018-12-25T23:05:53.895Z,20.30
2018-12-25T23:08:27.079Z,20.30
2018-12-25T23:11:01.539Z,20.30
2018-12-25T23:13:34.795Z,20.30
2018-12-25T23:16:08.305Z,20.10
2018-12-25T23:18:41.533Z,20.00
2018-12-25T23:21:15.928Z,20.00
2018-12-25T23:23:52.364Z,20.00
2018-12-25T23:26:25.677Z,19.90
2018-12-25T23:28:59.977Z,19.80
2018-12-25T23:31:34.780Z,19.70
2018-12-25T23:34:08.656Z,19.60
2018-12-25T23:36:43.157Z,19.60
2018-12-25T23:39:16.345Z,19.40
2018-12-25T23:41:52.799Z,19.30
2018-12-25T23:44:26.099Z,19.20
2018-12-25T23:46:59.367Z,19.10
2018-12-25T23:49:33.627Z,19.10
2018-12-25T23:52:09.944Z,19.10
2018-12-25T23:54:43.183Z,19.00
2018-12-25T23:57:19.607Z,19.00
2018-12-25T23:59:52.859Z,18.90
